Latest Weather Observations for Hay Point

IDQ60801

Issued at 7:05 am EST Saturday 19 April 2014 (issued every 30 minutes, with the page automatically refreshed every 10 minutes)

About weather observations | Map of weather stations | Latest weather observations for QLD | Other Formats
Station Details ID: 033317 Name: HAY POINT Lat: -21.29 Lon: 149.30 Height: 7.0 m
Data from the previous 72 hours. | See also: Recent months for locations in Queensland
Date/Time
EST
Temp
°C
App
Temp
°C
Dew
Point
Rel
Hum
%
Delta-T
°C
Wind Press
QNH
hPa
Press
MSL
hPa
Rain
since 9 am
mm
Dir
 
Spd
km/h
Gust
km/h
Spd
kts
Gust
kts
19/07:00am - - - - - SW 6 9 3 5 - - -
19/06:30am - - - - - SW 6 7 3 4 - - -
19/06:00am - - - - - SW 7 9 4 5 - - -
19/05:30am - - - - - SW 7 9 4 5 - - -
19/05:00am - - - - - WSW 7 11 4 6 - - -
19/04:30am - - - - - W 7 9 4 5 - - -
19/04:00am - - - - - W 11 13 6 7 - - -
19/03:30am - - - - - W 11 13 6 7 - - -
19/03:00am - - - - - WSW 7 9 4 5 - - -
19/02:30am - - - - - WSW 7 9 4 5 - - -
19/02:00am - - - - - W 9 11 5 6 - - -
19/01:30am - - - - - W 7 7 4 4 - - -
19/01:00am - - - - - W 9 11 5 6 - - -
19/12:30am - - - - - W 9 11 5 6 - - -
19/12:00am - - - - - WNW 7 9 4 5 - - -
 
Date/Time
EST
Temp
°C
App
Temp
°C
Dew
Point
Rel
Hum
%
Delta-T
°C
Wind Press
QNH
hPa
Press
MSL
hPa
Rain
since 9 am
mm
Dir
 
Spd
km/h
Gust
km/h
Spd
kts
Gust
kts
18/11:30pm - - - - - WNW 9 11 5 6 - - -
18/11:00pm - - - - - WNW 9 11 5 6 - - -
18/10:30pm - - - - - NNW 9 15 5 8 - - -
18/10:00pm - - - - - NNE 19 22 10 12 - - -
18/09:30pm - - - - - NNE 17 20 9 11 - - -
18/09:00pm - - - - - N 15 17 8 9 - - -
18/08:30pm - - - - - NNE 13 15 7 8 - - -
18/08:00pm - - - - - NNE 13 17 7 9 - - -
18/07:30pm - - - - - NE 11 13 6 7 - - -
18/07:00pm - - - - - NNE 13 15 7 8 - - -
18/06:30pm - - - - - NNE 17 19 9 10 - - -
18/06:00pm - - - - - NNE 15 19 8 10 - - -
18/05:30pm - - - - - NE 13 17 7 9 - - -
18/05:00pm - - - - - NE 11 15 6 8 - - -
18/04:30pm - - - - - NE 13 15 7 8 - - -
18/04:00pm - - - - - ENE 17 20 9 11 - - -
18/03:30pm - - - - - ENE 17 20 9 11 - - -
18/03:00pm - - - - - NE 17 22 9 12 - - -
18/02:30pm - - - - - ENE 19 20 10 11 - - -
18/02:00pm - - - - - NE 17 20 9 11 - - -
18/01:30pm - - - - - NE 17 20 9 11 - - -
18/01:00pm - - - - - NE 17 19 9 10 - - -
18/12:30pm - - - - - NE 15 19 8 10 - - -
18/12:00pm - - - - - NE 13 17 7 9 - - -
18/11:30am - - - - - ENE 15 17 8 9 - - -
18/11:00am - - - - - E 9 13 5 7 - - -
18/10:30am - - - - - SE 11 13 6 7 - - -
18/10:00am - - - - - ESE 9 11 5 6 - - -
18/09:30am - - - - - E 7 11 4 6 - - -
18/09:00am - - - - - SSE 7 11 4 6 - - -
18/08:30am - - - - - SSW 9 9 5 5 - - -
18/08:00am - - - - - SW 11 13 6 7 - - -
18/07:30am - - - - - SW 13 15 7 8 - - -
18/07:00am - - - - - SW 11 13 6 7 - - -
18/06:30am - - - - - SW 13 15 7 8 - - -
18/06:00am - - - - - SSW 7 7 4 4 - - -
18/05:30am - - - - - SW 4 7 2 4 - - -
18/05:00am - - - - - SW 2 6 1 3 - - -
18/04:30am - - - - - SSW 11 13 6 7 - - -
18/04:00am - - - - - WSW 15 17 8 9 - - -
18/03:30am - - - - - SW 13 13 7 7 - - -
18/03:00am - - - - - WNW 9 11 5 6 - - -
18/02:30am - - - - - N 15 19 8 10 - - -
18/02:00am - - - - - N 15 17 8 9 - - -
18/01:30am - - - - - NNE 17 19 9 10 - - -
18/01:00am - - - - - NNE 17 20 9 11 - - -
18/12:30am - - - - - NNE 17 19 9 10 - - -
18/12:00am - - - - - NE 17 19 9 10 - - -
 
Date/Time
EST
Temp
°C
App
Temp
°C
Dew
Point
Rel
Hum
%
Delta-T
°C
Wind Press
QNH
hPa
Press
MSL
hPa
Rain
since 9 am
mm
Dir
 
Spd
km/h
Gust
km/h
Spd
kts
Gust
kts
17/11:30pm - - - - - NE 17 19 9 10 - - -
17/11:00pm - - - - - NNE 17 20 9 11 - - -
17/10:30pm - - - - - NE 15 20 8 11 - - -
17/10:00pm - - - - - NE 17 19 9 10 - - -
17/09:30pm - - - - - NE 15 17 8 9 - - -
17/09:00pm - - - - - NE 13 17 7 9 - - -
17/08:30pm - - - - - NE 15 17 8 9 - - -
17/08:00pm - - - - - NE 17 19 9 10 - - -
17/07:30pm - - - - - NE 13 17 7 9 - - -
17/07:00pm - - - - - NE 13 17 7 9 - - -
17/06:30pm - - - - - NE 15 17 8 9 - - -
17/06:00pm - - - - - NE 13 19 7 10 - - -
17/05:30pm - - - - - NE 15 17 8 9 - - -
17/05:00pm - - - - - NE 15 17 8 9 - - -
17/04:30pm - - - - - ENE 15 19 8 10 - - -
17/04:00pm - - - - - ENE 17 20 9 11 - - -
17/03:30pm - - - - - ENE 17 20 9 11 - - -
17/03:00pm - - - - - ENE 17 19 9 10 - - -
17/02:30pm - - - - - ENE 15 17 8 9 - - -
17/02:00pm - - - - - ENE 15 19 8 10 - - -
17/01:30pm - - - - - ENE 15 20 8 11 - - -
17/01:00pm - - - - - ENE 15 19 8 10 - - -
17/12:30pm - - - - - ENE 15 19 8 10 - - -
17/12:00pm - - - - - ENE 15 17 8 9 - - -
17/11:30am - - - - - ENE 13 15 7 8 - - -
17/11:00am - - - - - ENE 13 17 7 9 - - -
17/10:30am - - - - - E 11 17 6 9 - - -
17/10:00am - - - - - SSE 11 13 6 7 - - -
17/09:30am - - - - - SSE 13 15 7 8 - - -
17/09:00am - - - - - S 13 15 7 8 - - -
17/08:30am - - - - - SSW 11 13 6 7 - - -
17/08:00am - - - - - SSW 13 13 7 7 - - -
17/07:30am - - - - - SSW 9 11 5 6 - - -
17/07:00am - - - - - SW 11 13 6 7 - - -
17/06:30am - - - - - SW 9 11 5 6 - - -
17/06:00am - - - - - SW 13 15 7 8 - - -
17/05:30am - - - - - ENE 13 17 7 9 - - -
17/05:00am - - - - - ENE 15 19 8 10 - - -
17/04:30am - - - - - ENE 17 19 9 10 - - -
17/04:00am - - - - - ENE 17 20 9 11 - - -
17/03:30am - - - - - ENE 17 19 9 10 - - -
17/03:00am - - - - - NE 13 15 7 8 - - -
17/02:30am - - - - - NE 13 17 7 9 - - -
17/02:00am - - - - - NE 15 17 8 9 - - -
17/01:30am - - - - - ENE 13 15 7 8 - - -
17/01:00am - - - - - ENE 11 13 6 7 - - -
17/12:30am - - - - - NE 13 17 7 9 - - -
17/12:00am - - - - - NE 15 17 8 9 - - -
 
Date/Time
EST
Temp
°C
App
Temp
°C
Dew
Point
Rel
Hum
%
Delta-T
°C
Wind Press
QNH
hPa
Press
MSL
hPa
Rain
since 9 am
mm
Dir
 
Spd
km/h
Gust
km/h
Spd
kts
Gust
kts
16/11:30pm - - - - - NNE 11 13 6 7 - - -
16/11:00pm - - - - - NNE 11 13 6 7 - - -
16/10:30pm - - - - - NE 13 15 7 8 - - -
16/10:00pm - - - - - NE 15 17 8 9 - - -
16/09:30pm - - - - - NE 17 19 9 10 - - -
16/09:00pm - - - - - NE 15 17 8 9 - - -
16/08:30pm - - - - - NE 17 19 9 10 - - -
16/08:00pm - - - - - NE 17 19 9 10 - - -
16/07:30pm - - - - - ENE 19 19 10 10 - - -
16/07:00pm - - - - - ENE 17 20 9 11 - - -
16/06:30pm - - - - - ENE 20 26 11 14 - - -
16/06:00pm - - - - - ENE 20 22 11 12 - - -
16/05:30pm - - - - - E 17 22 9 12 - - -
16/05:00pm - - - - - E 17 20 9 11 - - -
16/04:30pm - - - - - E 17 20 9 11 - - -
16/04:00pm - - - - - ENE 19 22 10 12 - - -
16/03:30pm - - - - - E 20 26 11 14 - - -
16/03:00pm - - - - - E 19 22 10 12 - - -
16/02:30pm - - - - - E 17 20 9 11 - - -
16/02:00pm - - - - - E 19 20 10 11 - - -
16/01:30pm - - - - - E 15 19 8 10 - - -
16/01:00pm - - - - - E 17 19 9 10 - - -
16/12:30pm - - - - - E 17 20 9 11 - - -
16/12:00pm - - - - - E 15 19 8 10 - - -
16/11:30am - - - - - E 15 17 8 9 - - -
16/11:00am - - - - - ESE 13 15 7 8 - - -
16/10:30am - - - - - ESE 13 17 7 9 - - -
16/10:00am - - - - - SSE 13 17 7 9 - - -
16/09:30am - - - - - S 13 17 7 9 - - -
16/09:00am - - - - - S 15 19 8 10 - - -
16/08:30am - - - - - S 11 13 6 7 - - -
16/08:00am - - - - - SSW 7 9 4 5 - - -
16/07:30am - - - - - SW 9 11 5 6 - - -

Other Formats:

Comma delimited format used in spreadsheet applications
http://www.bom.gov.au/fwo/IDQ60801/IDQ60801.99367.axf

JavaScript Object Notation format (JSON) in row-major order
http://www.bom.gov.au/fwo/IDQ60801/IDQ60801.99367.json